sensor_id;sensor_type;location;lat;lon;timestamp;P1;durP1;ratioP1;P2;durP2;ratioP2
44440;SDS011;30146;52.268;20.944;2022-11-15T00:00:25;21.50;;;14.40;;
44440;SDS011;30146;52.268;20.944;2022-11-15T00:03:15;26.00;;;15.00;;
44440;SDS011;30146;52.268;20.944;2022-11-15T00:06:05;28.90;;;18.10;;
44440;SDS011;30146;52.268;20.944;2022-11-15T00:08:58;26.00;;;15.30;;
44440;SDS011;30146;52.268;20.944;2022-11-15T00:11:48;25.70;;;16.10;;
44440;SDS011;30146;52.268;20.944;2022-11-15T00:14:38;21.20;;;14.10;;
44440;SDS011;30146;52.268;20.944;2022-11-15T00:17:28;23.10;;;15.10;;
44440;SDS011;30146;52.268;20.944;2022-11-15T00:20:17;26.60;;;16.20;;
44440;SDS011;30146;52.268;20.944;2022-11-15T00:23:07;25.70;;;16.00;;
44440;SDS011;30146;52.268;20.944;2022-11-15T00:25:56;27.70;;;17.10;;
44440;SDS011;30146;52.268;20.944;2022-11-15T00:28:46;27.30;;;16.50;;
44440;SDS011;30146;52.268;20.944;2022-11-15T00:31:36;27.80;;;16.30;;
44440;SDS011;30146;52.268;20.944;2022-11-15T00:34:25;36.40;;;18.70;;
44440;SDS011;30146;52.268;20.944;2022-11-15T00:37:15;33.80;;;19.00;;
44440;SDS011;30146;52.268;20.944;2022-11-15T00:40:05;28.80;;;18.40;;
44440;SDS011;30146;52.268;20.944;2022-11-15T00:42:56;28.80;;;18.40;;
44440;SDS011;30146;52.268;20.944;2022-11-15T00:45:46;30.00;;;18.80;;
44440;SDS011;30146;52.268;20.944;2022-11-15T00:48:36;33.70;;;17.30;;
44440;SDS011;30146;52.268;20.944;2022-11-15T00:51:26;32.40;;;18.90;;
44440;SDS011;30146;52.268;20.944;2022-11-15T00:54:16;36.70;;;20.00;;
44440;SDS011;30146;52.268;20.944;2022-11-15T00:57:05;35.50;;;19.00;;
44440;SDS011;30146;52.268;20.944;2022-11-15T00:59:54;39.60;;;21.20;;
44440;SDS011;30146;52.268;20.944;2022-11-15T01:02:44;32.60;;;19.80;;
44440;SDS011;30146;52.268;20.944;2022-11-15T01:05:36;39.90;;;21.80;;
44440;SDS011;30146;52.268;20.944;2022-11-15T01:08:26;34.30;;;19.30;;
44440;SDS011;30146;52.268;20.944;2022-11-15T01:11:15;38.10;;;21.70;;
44440;SDS011;30146;52.268;20.944;2022-11-15T01:14:05;30.90;;;20.30;;
44440;SDS011;30146;52.268;20.944;2022-11-15T01:16:54;37.70;;;22.20;;
44440;SDS011;30146;52.268;20.944;2022-11-15T01:19:44;38.00;;;21.90;;
44440;SDS011;30146;52.268;20.944;2022-11-15T01:22:33;35.10;;;21.70;;
44440;SDS011;30146;52.268;20.944;2022-11-15T01:25:23;41.40;;;22.70;;
44440;SDS011;30146;52.268;20.944;2022-11-15T01:28:12;45.90;;;24.30;;
44440;SDS011;30146;52.268;20.944;2022-11-15T01:31:02;48.30;;;26.20;;
44440;SDS011;30146;52.268;20.944;2022-11-15T01:33:53;41.20;;;25.10;;
44440;SDS011;30146;52.268;20.944;2022-11-15T01:36:43;46.40;;;26.60;;
44440;SDS011;30146;52.268;20.944;2022-11-15T01:39:33;45.10;;;25.20;;
44440;SDS011;30146;52.268;20.944;2022-11-15T01:42:22;42.10;;;24.50;;
44440;SDS011;30146;52.268;20.944;2022-11-15T01:45:12;44.80;;;24.00;;
44440;SDS011;30146;52.268;20.944;2022-11-15T01:48:04;42.90;;;26.00;;
44440;SDS011;30146;52.268;20.944;2022-11-15T01:50:57;44.80;;;24.10;;
44440;SDS011;30146;52.268;20.944;2022-11-15T01:53:49;45.10;;;26.20;;
44440;SDS011;30146;52.268;20.944;2022-11-15T01:56:44;43.30;;;26.00;;
44440;SDS011;30146;52.268;20.944;2022-11-15T01:59:39;46.30;;;24.70;;
44440;SDS011;30146;52.268;20.944;2022-11-15T02:02:31;39.30;;;23.50;;
44440;SDS011;30146;52.268;20.944;2022-11-15T02:05:21;44.80;;;24.10;;
44440;SDS011;30146;52.268;20.944;2022-11-15T02:08:11;49.20;;;26.70;;
44440;SDS011;30146;52.268;20.944;2022-11-15T02:11:08;38.80;;;21.90;;
44440;SDS011;30146;52.268;20.944;2022-11-15T02:13:58;44.10;;;25.00;;
44440;SDS011;30146;52.268;20.944;2022-11-15T02:16:51;43.90;;;23.80;;
44440;SDS011;30146;52.268;20.944;2022-11-15T02:19:52;46.30;;;23.80;;
44440;SDS011;30146;52.268;20.944;2022-11-15T02:27:01;45.00;;;23.20;;
44440;SDS011;30146;52.268;20.944;2022-11-15T02:30:22;35.20;;;20.50;;
44440;SDS011;30146;52.268;20.944;2022-11-15T02:33:17;46.00;;;25.40;;
44440;SDS011;30146;52.268;20.944;2022-11-15T02:36:15;37.50;;;22.70;;
44440;SDS011;30146;52.268;20.944;2022-11-15T02:39:16;43.70;;;22.70;;
44440;SDS011;30146;52.268;20.944;2022-11-15T02:42:12;42.60;;;21.50;;
44440;SDS011;30146;52.268;20.944;2022-11-15T02:45:23;31.60;;;18.40;;
44440;SDS011;30146;52.268;20.944;2022-11-15T02:48:15;44.90;;;25.50;;
44440;SDS011;30146;52.268;20.944;2022-11-15T02:51:07;50.00;;;26.30;;
44440;SDS011;30146;52.268;20.944;2022-11-15T02:53:57;49.90;;;26.50;;
44440;SDS011;30146;52.268;20.944;2022-11-15T02:56:47;43.60;;;24.30;;
44440;SDS011;30146;52.268;20.944;2022-11-15T02:59:46;50.60;;;26.10;;
44440;SDS011;30146;52.268;20.944;2022-11-15T03:03:08;37.00;;;23.20;;
44440;SDS011;30146;52.268;20.944;2022-11-15T03:06:16;43.70;;;25.10;;
44440;SDS011;30146;52.268;20.944;2022-11-15T03:09:17;50.40;;;29.20;;
44440;SDS011;30146;52.268;20.944;2022-11-15T03:12:17;47.30;;;25.40;;
44440;SDS011;30146;52.268;20.944;2022-11-15T03:15:17;43.00;;;24.50;;
44440;SDS011;30146;52.268;20.944;2022-11-15T03:18:10;56.10;;;26.60;;
44440;SDS011;30146;52.268;20.944;2022-11-15T03:21:07;54.70;;;28.50;;
44440;SDS011;30146;52.268;20.944;2022-11-15T03:24:00;52.30;;;27.70;;
44440;SDS011;30146;52.268;20.944;2022-11-15T03:26:54;54.60;;;30.80;;
44440;SDS011;30146;52.268;20.944;2022-11-15T03:29:47;43.30;;;24.40;;
44440;SDS011;30146;52.268;20.944;2022-11-15T03:32:43;52.90;;;30.00;;
44440;SDS011;30146;52.268;20.944;2022-11-15T03:35:35;52.70;;;30.60;;
44440;SDS011;30146;52.268;20.944;2022-11-15T03:38:29;60.70;;;32.30;;
44440;SDS011;30146;52.268;20.944;2022-11-15T03:41:23;38.00;;;21.80;;
44440;SDS011;30146;52.268;20.944;2022-11-15T03:44:16;49.60;;;24.70;;
44440;SDS011;30146;52.268;20.944;2022-11-15T03:47:16;54.10;;;31.00;;
44440;SDS011;30146;52.268;20.944;2022-11-15T03:50:10;59.20;;;29.70;;
44440;SDS011;30146;52.268;20.944;2022-11-15T03:53:03;51.30;;;27.70;;
44440;SDS011;30146;52.268;20.944;2022-11-15T03:55:53;58.60;;;29.50;;
44440;SDS011;30146;52.268;20.944;2022-11-15T03:58:42;54.10;;;28.30;;
44440;SDS011;30146;52.268;20.944;2022-11-15T04:01:31;55.50;;;29.60;;
44440;SDS011;30146;52.268;20.944;2022-11-15T04:04:21;48.90;;;26.60;;
44440;SDS011;30146;52.268;20.944;2022-11-15T04:07:11;56.60;;;28.10;;
44440;SDS011;30146;52.268;20.944;2022-11-15T04:10:01;62.10;;;31.20;;
44440;SDS011;30146;52.268;20.944;2022-11-15T04:12:52;53.90;;;27.80;;
44440;SDS011;30146;52.268;20.944;2022-11-15T04:15:41;51.70;;;28.20;;
44440;SDS011;30146;52.268;20.944;2022-11-15T04:18:31;58.80;;;28.80;;
44440;SDS011;30146;52.268;20.944;2022-11-15T04:21:20;53.20;;;27.10;;
44440;SDS011;30146;52.268;20.944;2022-11-15T04:24:28;49.30;;;28.30;;
44440;SDS011;30146;52.268;20.944;2022-11-15T04:27:17;52.80;;;27.10;;
44440;SDS011;30146;52.268;20.944;2022-11-15T04:30:08;51.40;;;27.00;;
44440;SDS011;30146;52.268;20.944;2022-11-15T04:32:58;51.00;;;27.20;;
44440;SDS011;30146;52.268;20.944;2022-11-15T04:35:47;59.10;;;28.30;;
44440;SDS011;30146;52.268;20.944;2022-11-15T04:38:51;71.60;;;35.20;;
44440;SDS011;30146;52.268;20.944;2022-11-15T04:41:40;63.30;;;31.20;;
44440;SDS011;30146;52.268;20.944;2022-11-15T04:44:30;59.70;;;28.40;;
44440;SDS011;30146;52.268;20.944;2022-11-15T04:47:19;53.80;;;27.00;;
44440;SDS011;30146;52.268;20.944;2022-11-15T04:50:09;49.60;;;26.40;;
44440;SDS011;30146;52.268;20.944;2022-11-15T04:52:59;54.30;;;26.40;;
44440;SDS011;30146;52.268;20.944;2022-11-15T04:55:49;47.80;;;24.80;;
44440;SDS011;30146;52.268;20.944;2022-11-15T04:58:38;55.90;;;28.60;;
44440;SDS011;30146;52.268;20.944;2022-11-15T05:01:39;53.30;;;27.00;;
44440;SDS011;30146;52.268;20.944;2022-11-15T05:04:31;52.50;;;26.90;;
44440;SDS011;30146;52.268;20.944;2022-11-15T05:07:22;57.10;;;26.50;;
44440;SDS011;30146;52.268;20.944;2022-11-15T05:10:12;57.60;;;28.80;;
44440;SDS011;30146;52.268;20.944;2022-11-15T05:13:02;59.50;;;27.60;;
44440;SDS011;30146;52.268;20.944;2022-11-15T05:15:52;60.40;;;29.50;;
44440;SDS011;30146;52.268;20.944;2022-11-15T05:18:42;57.00;;;28.50;;
44440;SDS011;30146;52.268;20.944;2022-11-15T05:21:33;47.30;;;23.40;;
44440;SDS011;30146;52.268;20.944;2022-11-15T05:24:23;48.50;;;24.20;;
44440;SDS011;30146;52.268;20.944;2022-11-15T05:27:12;52.40;;;25.80;;
44440;SDS011;30146;52.268;20.944;2022-11-15T05:30:02;53.80;;;28.00;;
44440;SDS011;30146;52.268;20.944;2022-11-15T05:32:54;49.70;;;25.40;;
44440;SDS011;30146;52.268;20.944;2022-11-15T05:35:45;45.50;;;23.60;;
44440;SDS011;30146;52.268;20.944;2022-11-15T05:38:38;51.30;;;26.00;;
44440;SDS011;30146;52.268;20.944;2022-11-15T05:41:32;57.50;;;29.60;;
44440;SDS011;30146;52.268;20.944;2022-11-15T05:44:25;54.80;;;26.50;;
44440;SDS011;30146;52.268;20.944;2022-11-15T05:47:16;50.40;;;26.30;;
44440;SDS011;30146;52.268;20.944;2022-11-15T05:50:11;50.40;;;24.20;;
44440;SDS011;30146;52.268;20.944;2022-11-15T05:53:06;51.80;;;23.60;;
44440;SDS011;30146;52.268;20.944;2022-11-15T05:56:02;46.30;;;25.10;;
44440;SDS011;30146;52.268;20.944;2022-11-15T05:58:57;54.00;;;23.30;;
44440;SDS011;30146;52.268;20.944;2022-11-15T06:01:49;53.90;;;26.10;;
44440;SDS011;30146;52.268;20.944;2022-11-15T06:04:42;58.00;;;26.40;;
44440;SDS011;30146;52.268;20.944;2022-11-15T06:07:33;46.70;;;23.50;;
44440;SDS011;30146;52.268;20.944;2022-11-15T06:10:23;55.60;;;26.30;;
44440;SDS011;30146;52.268;20.944;2022-11-15T06:13:14;50.10;;;24.40;;
44440;SDS011;30146;52.268;20.944;2022-11-15T06:16:04;48.60;;;24.30;;
44440;SDS011;30146;52.268;20.944;2022-11-15T06:18:55;49.70;;;24.20;;
44440;SDS011;30146;52.268;20.944;2022-11-15T06:21:46;44.40;;;20.20;;
44440;SDS011;30146;52.268;20.944;2022-11-15T06:24:36;42.00;;;21.80;;
44440;SDS011;30146;52.268;20.944;2022-11-15T06:27:26;42.70;;;20.90;;
44440;SDS011;30146;52.268;20.944;2022-11-15T06:30:17;45.90;;;22.50;;
44440;SDS011;30146;52.268;20.944;2022-11-15T06:33:09;48.00;;;21.60;;
44440;SDS011;30146;52.268;20.944;2022-11-15T06:36:01;46.20;;;24.70;;
44440;SDS011;30146;52.268;20.944;2022-11-15T06:38:52;50.10;;;23.20;;
44440;SDS011;30146;52.268;20.944;2022-11-15T06:45:00;41.50;;;18.80;;
44440;SDS011;30146;52.268;20.944;2022-11-15T06:47:54;49.00;;;24.20;;
44440;SDS011;30146;52.268;20.944;2022-11-15T06:50:53;47.50;;;23.00;;
44440;SDS011;30146;52.268;20.944;2022-11-15T06:53:47;50.60;;;23.90;;
44440;SDS011;30146;52.268;20.944;2022-11-15T06:56:40;46.80;;;21.40;;
44440;SDS011;30146;52.268;20.944;2022-11-15T06:59:30;51.90;;;24.40;;
44440;SDS011;30146;52.268;20.944;2022-11-15T07:02:36;49.80;;;22.30;;
44440;SDS011;30146;52.268;20.944;2022-11-15T07:05:31;48.20;;;23.00;;
44440;SDS011;30146;52.268;20.944;2022-11-15T07:08:28;45.90;;;23.00;;
44440;SDS011;30146;52.268;20.944;2022-11-15T07:11:19;43.50;;;22.10;;
44440;SDS011;30146;52.268;20.944;2022-11-15T07:14:09;46.80;;;21.30;;
44440;SDS011;30146;52.268;20.944;2022-11-15T07:17:12;37.60;;;19.70;;
44440;SDS011;30146;52.268;20.944;2022-11-15T07:20:06;37.00;;;19.60;;
44440;SDS011;30146;52.268;20.944;2022-11-15T07:23:01;39.10;;;19.80;;
44440;SDS011;30146;52.268;20.944;2022-11-15T07:26:04;43.30;;;20.40;;
44440;SDS011;30146;52.268;20.944;2022-11-15T07:29:02;33.50;;;18.50;;
44440;SDS011;30146;52.268;20.944;2022-11-15T07:31:54;41.20;;;21.50;;
44440;SDS011;30146;52.268;20.944;2022-11-15T07:34:44;42.80;;;22.00;;
44440;SDS011;30146;52.268;20.944;2022-11-15T07:37:40;39.00;;;20.20;;
44440;SDS011;30146;52.268;20.944;2022-11-15T07:40:30;41.70;;;21.30;;
44440;SDS011;30146;52.268;20.944;2022-11-15T07:43:20;34.80;;;20.00;;
44440;SDS011;30146;52.268;20.944;2022-11-15T07:46:12;42.40;;;20.00;;
44440;SDS011;30146;52.268;20.944;2022-11-15T07:49:03;36.70;;;19.30;;
44440;SDS011;30146;52.268;20.944;2022-11-15T07:51:54;38.20;;;20.40;;
44440;SDS011;30146;52.268;20.944;2022-11-15T07:54:43;36.40;;;19.60;;
44440;SDS011;30146;52.268;20.944;2022-11-15T07:57:34;35.90;;;20.20;;
44440;SDS011;30146;52.268;20.944;2022-11-15T08:00:24;38.90;;;19.50;;
44440;SDS011;30146;52.268;20.944;2022-11-15T08:03:14;35.60;;;19.50;;
44440;SDS011;30146;52.268;20.944;2022-11-15T08:06:05;36.50;;;19.50;;
44440;SDS011;30146;52.268;20.944;2022-11-15T08:08:55;38.50;;;20.20;;
44440;SDS011;30146;52.268;20.944;2022-11-15T08:15:36;37.30;;;16.80;;
44440;SDS011;30146;52.268;20.944;2022-11-15T08:18:26;41.80;;;20.20;;
44440;SDS011;30146;52.268;20.944;2022-11-15T08:21:18;39.80;;;21.60;;
44440;SDS011;30146;52.268;20.944;2022-11-15T08:24:09;38.30;;;20.10;;
44440;SDS011;30146;52.268;20.944;2022-11-15T08:27:00;30.20;;;18.00;;
44440;SDS011;30146;52.268;20.944;2022-11-15T08:29:51;35.60;;;18.40;;
44440;SDS011;30146;52.268;20.944;2022-11-15T08:32:45;38.30;;;18.90;;
44440;SDS011;30146;52.268;20.944;2022-11-15T08:35:35;41.70;;;21.20;;
44440;SDS011;30146;52.268;20.944;2022-11-15T08:38:26;38.20;;;20.80;;
44440;SDS011;30146;52.268;20.944;2022-11-15T08:41:19;40.70;;;21.10;;
44440;SDS011;30146;52.268;20.944;2022-11-15T08:44:21;36.80;;;20.60;;
44440;SDS011;30146;52.268;20.944;2022-11-15T08:47:13;43.70;;;19.70;;
44440;SDS011;30146;52.268;20.944;2022-11-15T08:50:04;44.60;;;21.80;;
44440;SDS011;30146;52.268;20.944;2022-11-15T08:52:55;42.80;;;21.10;;
44440;SDS011;30146;52.268;20.944;2022-11-15T08:55:46;40.80;;;21.20;;
44440;SDS011;30146;52.268;20.944;2022-11-15T08:58:36;35.10;;;20.70;;
44440;SDS011;30146;52.268;20.944;2022-11-15T09:01:26;33.00;;;17.60;;
44440;SDS011;30146;52.268;20.944;2022-11-15T09:04:22;43.80;;;20.50;;
44440;SDS011;30146;52.268;20.944;2022-11-15T09:07:12;47.00;;;22.20;;
44440;SDS011;30146;52.268;20.944;2022-11-15T09:10:03;40.90;;;19.90;;
44440;SDS011;30146;52.268;20.944;2022-11-15T09:12:53;37.70;;;21.10;;
44440;SDS011;30146;52.268;20.944;2022-11-15T09:15:44;41.70;;;24.50;;
44440;SDS011;30146;52.268;20.944;2022-11-15T09:18:38;38.60;;;20.90;;
44440;SDS011;30146;52.268;20.944;2022-11-15T09:21:29;34.30;;;18.10;;
44440;SDS011;30146;52.268;20.944;2022-11-15T09:24:26;34.90;;;19.50;;
44440;SDS011;30146;52.268;20.944;2022-11-15T09:27:19;41.60;;;22.90;;
44440;SDS011;30146;52.268;20.944;2022-11-15T09:30:10;40.30;;;21.40;;
44440;SDS011;30146;52.268;20.944;2022-11-15T09:33:07;37.80;;;20.20;;
44440;SDS011;30146;52.268;20.944;2022-11-15T09:38:50;35.80;;;18.10;;
44440;SDS011;30146;52.268;20.944;2022-11-15T09:41:44;38.40;;;20.50;;
44440;SDS011;30146;52.268;20.944;2022-11-15T09:44:56;39.50;;;21.60;;
44440;SDS011;30146;52.268;20.944;2022-11-15T09:47:58;40.30;;;21.10;;
44440;SDS011;30146;52.268;20.944;2022-11-15T09:50:51;43.30;;;20.60;;
44440;SDS011;30146;52.268;20.944;2022-11-15T09:53:29;45.60;;;23.50;;
44440;SDS011;30146;52.268;20.944;2022-11-15T09:56:31;38.40;;;21.80;;
44440;SDS011;30146;52.268;20.944;2022-11-15T09:59:08;44.10;;;23.30;;
44440;SDS011;30146;52.268;20.944;2022-11-15T10:01:53;38.20;;;21.60;;
44440;SDS011;30146;52.268;20.944;2022-11-15T10:04:30;45.00;;;22.50;;
44440;SDS011;30146;52.268;20.944;2022-11-15T10:07:13;54.80;;;31.90;;
44440;SDS011;30146;52.268;20.944;2022-11-15T10:09:49;51.40;;;27.70;;
44440;SDS011;30146;52.268;20.944;2022-11-15T10:12:25;40.00;;;21.80;;
44440;SDS011;30146;52.268;20.944;2022-11-15T10:15:03;38.60;;;22.50;;
44440;SDS011;30146;52.268;20.944;2022-11-15T10:17:49;38.60;;;21.80;;
44440;SDS011;30146;52.268;20.944;2022-11-15T10:20:50;40.30;;;21.00;;
44440;SDS011;30146;52.268;20.944;2022-11-15T10:23:25;38.60;;;21.40;;
44440;SDS011;30146;52.268;20.944;2022-11-15T10:25:59;37.00;;;21.70;;
44440;SDS011;30146;52.268;20.944;2022-11-15T10:28:34;41.90;;;20.40;;
44440;SDS011;30146;52.268;20.944;2022-11-15T10:31:20;39.90;;;20.70;;
44440;SDS011;30146;52.268;20.944;2022-11-15T10:33:56;44.40;;;23.80;;
44440;SDS011;30146;52.268;20.944;2022-11-15T10:36:41;41.60;;;23.80;;
44440;SDS011;30146;52.268;20.944;2022-11-15T10:39:17;36.50;;;21.00;;
44440;SDS011;30146;52.268;20.944;2022-11-15T10:41:48;51.50;;;25.90;;
44440;SDS011;30146;52.268;20.944;2022-11-15T10:44:23;46.30;;;26.30;;
44440;SDS011;30146;52.268;20.944;2022-11-15T10:49:55;48.40;;;24.50;;
44440;SDS011;30146;52.268;20.944;2022-11-15T10:52:27;44.80;;;24.00;;
44440;SDS011;30146;52.268;20.944;2022-11-15T10:55:02;42.00;;;23.70;;
44440;SDS011;30146;52.268;20.944;2022-11-15T10:57:50;40.00;;;23.50;;
44440;SDS011;30146;52.268;20.944;2022-11-15T11:00:30;47.60;;;23.80;;
44440;SDS011;30146;52.268;20.944;2022-11-15T11:03:05;40.30;;;23.40;;
44440;SDS011;30146;52.268;20.944;2022-11-15T11:06:02;47.20;;;23.50;;
44440;SDS011;30146;52.268;20.944;2022-11-15T11:08:35;50.90;;;26.20;;
44440;SDS011;30146;52.268;20.944;2022-11-15T11:11:06;45.00;;;26.30;;
44440;SDS011;30146;52.268;20.944;2022-11-15T11:13:38;48.80;;;27.20;;
44440;SDS011;30146;52.268;20.944;2022-11-15T11:16:19;48.20;;;26.40;;
44440;SDS011;30146;52.268;20.944;2022-11-15T11:19:08;53.50;;;26.40;;
44440;SDS011;30146;52.268;20.944;2022-11-15T11:21:49;50.40;;;26.00;;
44440;SDS011;30146;52.268;20.944;2022-11-15T11:24:32;47.10;;;24.90;;
44440;SDS011;30146;52.268;20.944;2022-11-15T11:27:15;45.90;;;26.20;;
44440;SDS011;30146;52.268;20.944;2022-11-15T11:29:59;43.70;;;25.10;;
44440;SDS011;30146;52.268;20.944;2022-11-15T11:32:43;48.70;;;27.40;;
44440;SDS011;30146;52.268;20.944;2022-11-15T11:35:29;49.80;;;26.90;;
44440;SDS011;30146;52.268;20.944;2022-11-15T11:38:10;50.10;;;26.40;;
44440;SDS011;30146;52.268;20.944;2022-11-15T11:40:57;49.40;;;27.60;;
44440;SDS011;30146;52.268;20.944;2022-11-15T11:43:36;53.90;;;28.20;;
44440;SDS011;30146;52.268;20.944;2022-11-15T11:46:22;53.30;;;28.10;;
44440;SDS011;30146;52.268;20.944;2022-11-15T11:49:07;52.60;;;28.10;;
44440;SDS011;30146;52.268;20.944;2022-11-15T11:51:40;55.70;;;28.70;;
44440;SDS011;30146;52.268;20.944;2022-11-15T11:54:19;58.00;;;29.20;;
44440;SDS011;30146;52.268;20.944;2022-11-15T11:56:52;54.00;;;27.60;;
44440;SDS011;30146;52.268;20.944;2022-11-15T12:02:11;46.40;;;26.00;;
44440;SDS011;30146;52.268;20.944;2022-11-15T12:04:51;42.00;;;25.60;;
44440;SDS011;30146;52.268;20.944;2022-11-15T12:07:27;44.60;;;24.80;;
44440;SDS011;30146;52.268;20.944;2022-11-15T12:10:01;55.00;;;28.50;;
44440;SDS011;30146;52.268;20.944;2022-11-15T12:12:44;47.90;;;27.40;;
44440;SDS011;30146;52.268;20.944;2022-11-15T12:15:23;50.40;;;28.40;;
44440;SDS011;30146;52.268;20.944;2022-11-15T12:17:56;50.20;;;27.10;;
44440;SDS011;30146;52.268;20.944;2022-11-15T12:20:30;53.60;;;26.80;;
44440;SDS011;30146;52.268;20.944;2022-11-15T12:23:08;53.00;;;27.10;;
44440;SDS011;30146;52.268;20.944;2022-11-15T12:25:45;49.30;;;26.20;;
44440;SDS011;30146;52.268;20.944;2022-11-15T12:28:27;50.80;;;27.40;;
44440;SDS011;30146;52.268;20.944;2022-11-15T12:31:06;46.70;;;26.60;;
44440;SDS011;30146;52.268;20.944;2022-11-15T12:33:45;60.60;;;26.40;;
44440;SDS011;30146;52.268;20.944;2022-11-15T12:39:07;52.60;;;28.50;;
44440;SDS011;30146;52.268;20.944;2022-11-15T12:41:39;44.30;;;26.90;;
44440;SDS011;30146;52.268;20.944;2022-11-15T12:47:28;51.00;;;27.60;;
44440;SDS011;30146;52.268;20.944;2022-11-15T12:49:59;61.00;;;28.90;;
44440;SDS011;30146;52.268;20.944;2022-11-15T12:52:30;57.00;;;29.30;;
44440;SDS011;30146;52.268;20.944;2022-11-15T12:55:01;50.20;;;27.00;;
44440;SDS011;30146;52.268;20.944;2022-11-15T12:57:55;55.20;;;27.90;;
44440;SDS011;30146;52.268;20.944;2022-11-15T13:01:14;49.00;;;26.40;;
44440;SDS011;30146;52.268;20.944;2022-11-15T13:04:23;47.30;;;28.80;;
44440;SDS011;30146;52.268;20.944;2022-11-15T13:06:57;49.30;;;28.50;;
44440;SDS011;30146;52.268;20.944;2022-11-15T13:09:53;64.40;;;36.40;;
44440;SDS011;30146;52.268;20.944;2022-11-15T13:15:32;57.20;;;30.10;;
44440;SDS011;30146;52.268;20.944;2022-11-15T13:21:04;50.20;;;28.70;;
44440;SDS011;30146;52.268;20.944;2022-11-15T13:24:11;51.30;;;29.30;;
44440;SDS011;30146;52.268;20.944;2022-11-15T13:26:45;48.70;;;27.40;;
44440;SDS011;30146;52.268;20.944;2022-11-15T13:29:17;59.60;;;29.90;;
44440;SDS011;30146;52.268;20.944;2022-11-15T13:31:49;54.40;;;29.90;;
44440;SDS011;30146;52.268;20.944;2022-11-15T13:34:27;56.00;;;29.90;;
44440;SDS011;30146;52.268;20.944;2022-11-15T13:37:31;51.30;;;29.00;;
44440;SDS011;30146;52.268;20.944;2022-11-15T13:40:21;58.10;;;29.10;;
44440;SDS011;30146;52.268;20.944;2022-11-15T13:42:58;47.30;;;28.90;;
44440;SDS011;30146;52.268;20.944;2022-11-15T13:45:44;55.20;;;30.60;;
44440;SDS011;30146;52.268;20.944;2022-11-15T13:48:32;57.70;;;30.10;;
44440;SDS011;30146;52.268;20.944;2022-11-15T13:51:04;52.70;;;29.50;;
44440;SDS011;30146;52.268;20.944;2022-11-15T13:53:38;53.00;;;30.20;;
44440;SDS011;30146;52.268;20.944;2022-11-15T13:56:15;65.60;;;30.80;;
44440;SDS011;30146;52.268;20.944;2022-11-15T14:01:21;58.00;;;28.80;;
44440;SDS011;30146;52.268;20.944;2022-11-15T14:03:56;64.90;;;28.80;;
44440;SDS011;30146;52.268;20.944;2022-11-15T14:06:29;50.90;;;29.00;;
44440;SDS011;30146;52.268;20.944;2022-11-15T14:09:03;60.20;;;30.10;;
44440;SDS011;30146;52.268;20.944;2022-11-15T14:11:54;58.20;;;29.90;;
44440;SDS011;30146;52.268;20.944;2022-11-15T14:14:27;63.90;;;31.20;;
44440;SDS011;30146;52.268;20.944;2022-11-15T14:16:59;65.10;;;29.60;;
44440;SDS011;30146;52.268;20.944;2022-11-15T14:19:35;55.80;;;29.90;;
44440;SDS011;30146;52.268;20.944;2022-11-15T14:22:16;57.30;;;28.70;;
44440;SDS011;30146;52.268;20.944;2022-11-15T14:30:34;57.70;;;29.20;;
44440;SDS011;30146;52.268;20.944;2022-11-15T14:33:14;57.80;;;29.90;;
44440;SDS011;30146;52.268;20.944;2022-11-15T14:35:50;51.40;;;28.20;;
44440;SDS011;30146;52.268;20.944;2022-11-15T14:38:22;52.20;;;27.60;;
44440;SDS011;30146;52.268;20.944;2022-11-15T14:40:54;49.60;;;28.00;;
44440;SDS011;30146;52.268;20.944;2022-11-15T14:43:25;51.80;;;27.90;;
44440;SDS011;30146;52.268;20.944;2022-11-15T14:45:56;54.40;;;28.00;;
44440;SDS011;30146;52.268;20.944;2022-11-15T14:48:28;49.80;;;27.20;;
44440;SDS011;30146;52.268;20.944;2022-11-15T14:51:00;49.00;;;26.00;;
44440;SDS011;30146;52.268;20.944;2022-11-15T14:53:31;59.50;;;28.70;;
44440;SDS011;30146;52.268;20.944;2022-11-15T14:56:02;54.30;;;26.50;;
44440;SDS011;30146;52.268;20.944;2022-11-15T14:58:33;56.20;;;27.90;;
44440;SDS011;30146;52.268;20.944;2022-11-15T15:01:08;56.60;;;27.40;;
44440;SDS011;30146;52.268;20.944;2022-11-15T15:03:42;54.20;;;27.20;;
44440;SDS011;30146;52.268;20.944;2022-11-15T15:06:14;45.20;;;25.40;;
44440;SDS011;30146;52.268;20.944;2022-11-15T15:08:46;45.20;;;25.30;;
44440;SDS011;30146;52.268;20.944;2022-11-15T15:11:19;48.60;;;26.20;;
44440;SDS011;30146;52.268;20.944;2022-11-15T15:13:52;49.80;;;24.60;;
44440;SDS011;30146;52.268;20.944;2022-11-15T15:16:25;52.10;;;27.40;;
44440;SDS011;30146;52.268;20.944;2022-11-15T15:18:56;46.80;;;26.40;;
44440;SDS011;30146;52.268;20.944;2022-11-15T15:21:27;47.00;;;25.50;;
44440;SDS011;30146;52.268;20.944;2022-11-15T15:24:05;54.30;;;28.70;;
44440;SDS011;30146;52.268;20.944;2022-11-15T15:26:37;64.80;;;33.00;;
44440;SDS011;30146;52.268;20.944;2022-11-15T15:29:09;59.90;;;31.30;;
44440;SDS011;30146;52.268;20.944;2022-11-15T15:31:40;60.70;;;31.10;;
44440;SDS011;30146;52.268;20.944;2022-11-15T15:34:11;68.10;;;31.80;;
44440;SDS011;30146;52.268;20.944;2022-11-15T15:36:44;51.80;;;27.00;;
44440;SDS011;30146;52.268;20.944;2022-11-15T15:39:15;51.70;;;26.30;;
44440;SDS011;30146;52.268;20.944;2022-11-15T15:41:46;58.60;;;28.30;;
44440;SDS011;30146;52.268;20.944;2022-11-15T15:44:24;59.50;;;30.20;;
44440;SDS011;30146;52.268;20.944;2022-11-15T15:46:55;52.00;;;27.40;;
44440;SDS011;30146;52.268;20.944;2022-11-15T15:49:27;55.50;;;27.90;;
44440;SDS011;30146;52.268;20.944;2022-11-15T15:51:58;58.20;;;30.80;;
44440;SDS011;30146;52.268;20.944;2022-11-15T15:54:29;54.90;;;28.70;;
44440;SDS011;30146;52.268;20.944;2022-11-15T15:57:00;61.90;;;32.00;;
44440;SDS011;30146;52.268;20.944;2022-11-15T15:59:31;54.80;;;28.80;;
44440;SDS011;30146;52.268;20.944;2022-11-15T16:02:02;56.40;;;28.80;;
44440;SDS011;30146;52.268;20.944;2022-11-15T16:04:33;57.90;;;30.30;;
44440;SDS011;30146;52.268;20.944;2022-11-15T16:07:04;58.80;;;29.80;;
44440;SDS011;30146;52.268;20.944;2022-11-15T16:09:44;60.10;;;29.80;;
44440;SDS011;30146;52.268;20.944;2022-11-15T16:12:31;63.20;;;33.50;;
44440;SDS011;30146;52.268;20.944;2022-11-15T16:15:04;64.10;;;32.40;;
44440;SDS011;30146;52.268;20.944;2022-11-15T16:17:37;77.60;;;36.30;;
44440;SDS011;30146;52.268;20.944;2022-11-15T16:20:12;74.90;;;37.40;;
44440;SDS011;30146;52.268;20.944;2022-11-15T16:22:59;73.30;;;33.70;;
44440;SDS011;30146;52.268;20.944;2022-11-15T16:25:38;67.60;;;30.80;;
44440;SDS011;30146;52.268;20.944;2022-11-15T16:28:16;58.00;;;29.30;;
44440;SDS011;30146;52.268;20.944;2022-11-15T16:30:49;64.10;;;30.10;;
44440;SDS011;30146;52.268;20.944;2022-11-15T16:33:29;63.10;;;29.50;;
44440;SDS011;30146;52.268;20.944;2022-11-15T16:36:01;61.50;;;30.20;;
44440;SDS011;30146;52.268;20.944;2022-11-15T16:38:33;59.80;;;28.80;;